createdAt,value
2023-05-09T00:00:53.573Z,0.04
2023-05-09T00:05:29.016Z,0.04
2023-05-09T00:10:28.458Z,0.04
2023-05-09T00:15:28.703Z,0.04
2023-05-09T00:20:27.829Z,0.04
2023-05-09T00:25:28.851Z,0.04
2023-05-09T00:30:25.483Z,0.04
2023-05-09T00:35:25.634Z,0.04
2023-05-09T00:40:24.570Z,0.04
2023-05-09T00:45:24.951Z,0.04
2023-05-09T00:50:22.889Z,0.04
2023-05-09T00:55:23.008Z,0.04
2023-05-09T00:59:54.550Z,0.04
2023-05-09T01:04:55.549Z,0.04
2023-05-09T01:09:51.912Z,0.04
2023-05-09T01:14:51.908Z,0.04
2023-05-09T01:19:51.110Z,0.04
2023-05-09T01:24:51.171Z,0.04
2023-05-09T01:29:48.832Z,0.03
2023-05-09T01:34:48.186Z,0.04
2023-05-09T01:39:47.833Z,0.04
2023-05-09T01:44:47.292Z,0.04
2023-05-09T01:49:46.741Z,0.04
2023-05-09T01:54:46.416Z,0.04
2023-05-09T01:59:43.906Z,0.04
2023-05-09T02:04:44.333Z,0.04
2023-05-09T02:09:42.387Z,0.04
2023-05-09T02:14:43.526Z,0.04
2023-05-09T02:19:42.994Z,0.04
2023-05-09T02:24:31.406Z,0.04
2023-05-09T02:29:31.391Z,0.04
2023-05-09T02:34:31.111Z,0.04
2023-05-09T02:39:30.985Z,0.04
2023-05-09T02:44:28.647Z,0.04
2023-05-09T02:49:42.120Z,0.04
2023-05-09T02:54:27.161Z,0.04
2023-05-09T02:59:26.568Z,0.04
2023-05-09T03:04:26.362Z,0.04
2023-05-09T03:09:25.728Z,0.04
2023-05-09T03:14:26.105Z,0.04
2023-05-09T03:19:25.488Z,0.04
2023-05-09T03:24:23.211Z,0.04
2023-05-09T04:01:07.166Z,0.17
2023-05-09T04:05:41.834Z,0.24
2023-05-09T04:10:41.480Z,0.27
2023-05-09T04:15:40.871Z,0.27
2023-05-09T04:20:40.132Z,0.26
2023-05-09T04:25:40.108Z,0.29
2023-05-09T04:30:40.319Z,0.27
2023-05-09T04:35:41.686Z,0.35
2023-05-09T04:40:41.659Z,0.4
2023-05-09T04:45:47.748Z,0.42
2023-05-09T04:50:46.895Z,0.43
2023-05-09T04:55:47.652Z,0.49
2023-05-09T06:04:46.036Z,2.79
2023-05-09T06:09:43.201Z,2.2
2023-05-09T06:14:42.411Z,2.46
2023-05-09T06:19:42.414Z,2.31
2023-05-09T06:25:08.745Z,2.31
2023-05-09T06:29:30.052Z,2.38
2023-05-09T06:34:29.809Z,2.93
2023-05-09T06:39:29.612Z,3.5
2023-05-09T06:44:29.210Z,4.7
2023-05-09T06:49:28.577Z,3.6
2023-05-09T06:54:28.758Z,4.35
2023-05-09T09:01:03.609Z,12.47
2023-05-09T09:06:06.183Z,13.82
2023-05-09T09:10:46.286Z,14.22
2023-05-09T09:15:45.929Z,14.1
2023-05-09T09:20:45.087Z,12.47
2023-05-09T09:25:44.782Z,13.9
2023-05-09T09:30:45.538Z,13.21
2023-05-09T09:35:46.257Z,14.37
2023-05-09T09:40:43.516Z,14.02
2023-05-09T09:45:43.084Z,13.33
2023-05-09T09:50:45.237Z,14.11
2023-05-09T09:55:31.098Z,16.79
2023-05-09T10:24:48.781Z,21.06
2023-05-09T10:34:46.293Z,7.69
2023-05-09T10:49:47.702Z,6.74
2023-05-09T10:55:26.878Z,6.89
2023-05-09T10:59:45.312Z,8.13
2023-05-09T11:04:46.454Z,9.47
2023-05-09T11:09:44.954Z,9.99
2023-05-09T11:14:45.173Z,9.73
2023-05-09T11:19:44.692Z,8.39
2023-05-09T11:24:46.427Z,6.25
2023-05-09T11:29:43.525Z,5.83
2023-05-09T11:34:43.207Z,5.92
2023-05-09T11:39:44.865Z,5.07
2023-05-09T11:44:31.270Z,5.23
2023-05-09T11:49:33.568Z,6.74
2023-05-09T11:54:30.814Z,8.04
2023-05-09T11:59:30.245Z,9.26
2023-05-09T12:34:24.579Z,12.05
2023-05-09T14:01:05.037Z,7.37
2023-05-09T14:05:44.490Z,8.87
2023-05-09T14:10:47.211Z,10.23
2023-05-09T14:15:46.590Z,12.04
2023-05-09T14:20:44.551Z,11.96
2023-05-09T14:25:31.460Z,11.09
2023-05-09T14:30:31.309Z,10.56
2023-05-09T14:35:32.496Z,10.27
2023-05-09T14:40:28.953Z,9.88
2023-05-09T14:45:29.180Z,8.86
2023-05-09T14:50:28.543Z,8.16
2023-05-09T14:55:28.362Z,7.71
2023-05-09T14:59:45.638Z,7.3
2023-05-09T15:04:45.239Z,7.05
2023-05-09T15:09:44.791Z,6.51
2023-05-09T15:14:43.949Z,6.24
2023-05-09T15:19:46.962Z,6
2023-05-09T15:26:53.578Z,5.9
2023-05-09T15:29:42.096Z,5.85
2023-05-09T15:34:42.798Z,5.41
2023-05-09T15:39:42.427Z,4.94
2023-05-09T15:44:30.936Z,4.68
2023-05-09T15:49:30.712Z,4.4
2023-05-09T15:54:30.694Z,4.31
2023-05-09T15:59:29.820Z,4.26
2023-05-09T16:04:31.543Z,4.07
2023-05-09T16:09:27.390Z,3.57
2023-05-09T16:14:27.521Z,3
2023-05-09T16:19:27.111Z,2.78
2023-05-09T18:01:01.153Z,0.52
2023-05-09T18:05:47.945Z,0.51
2023-05-09T18:10:43.075Z,0.34
2023-05-09T18:15:42.799Z,0.43
2023-05-09T18:20:45.017Z,0.28
2023-05-09T18:25:30.589Z,0.26
2023-05-09T18:30:30.689Z,0.27
2023-05-09T18:35:29.594Z,0.19
2023-05-09T18:40:29.579Z,0.16
2023-05-09T18:45:27.539Z,0.14
2023-05-09T18:50:27.554Z,0.11
2023-05-09T18:55:27.349Z,0.09
2023-05-09T19:04:51.084Z,0.06
2023-05-09T19:09:50.306Z,0.05
2023-05-09T19:14:50.040Z,0.05
2023-05-09T19:19:49.520Z,0.04
2023-05-09T19:24:47.356Z,0.04
2023-05-09T19:29:48.764Z,0.03
2023-05-09T19:34:47.629Z,0.04
2023-05-09T19:39:48.661Z,0.04
2023-05-09T19:44:45.493Z,0.04
2023-05-09T19:49:44.709Z,0.04
2023-05-09T19:54:44.440Z,0.04
2023-05-09T22:01:02.461Z,0.04
2023-05-09T22:05:47.977Z,0.04
2023-05-09T22:10:48.345Z,0.04
2023-05-09T22:15:48.502Z,0.04
2023-05-09T22:20:45.938Z,0.04
2023-05-09T22:25:45.186Z,0.04
2023-05-09T22:30:47.359Z,0.04
2023-05-09T22:35:43.928Z,0.04
2023-05-09T22:40:43.188Z,0.04
2023-05-09T22:45:43.478Z,0.04
2023-05-09T22:50:31.125Z,0.04
2023-05-09T22:55:30.498Z,0.04
2023-05-09T22:59:48.336Z,0.04
2023-05-09T23:04:38.281Z,0.04
2023-05-09T23:09:46.289Z,0.04
2023-05-09T23:14:47.018Z,0.04
2023-05-09T23:19:47.176Z,0.04
2023-05-09T23:24:45.683Z,0.04
2023-05-09T23:29:46.040Z,0.04
2023-05-09T23:34:46.796Z,0.04
2023-05-09T23:39:44.362Z,0.04
2023-05-09T23:44:43.836Z,0.04
2023-05-09T23:49:44.427Z,0.04
2023-05-09T23:54:42.852Z,0.04
